createdAt,value
2022-10-13T00:01:14.875Z,75.00
2022-10-13T00:03:45.999Z,75.00
2022-10-13T00:06:22.774Z,74.70
2022-10-13T00:08:50.876Z,74.60
2022-10-13T00:11:23.024Z,74.70
2022-10-13T00:13:51.328Z,74.50
2022-10-13T00:16:20.950Z,74.60
2022-10-13T00:18:49.494Z,74.80
2022-10-13T00:21:20.208Z,75.00
2022-10-13T00:23:50.675Z,75.00
2022-10-13T00:26:21.696Z,75.00
2022-10-13T00:28:52.566Z,74.90
2022-10-13T00:31:23.736Z,74.90
2022-10-13T00:33:51.879Z,74.90
2022-10-13T00:36:23.070Z,74.80
2022-10-13T00:38:51.139Z,74.70
2022-10-13T00:41:19.186Z,74.80
2022-10-13T00:43:59.833Z,74.70
2022-10-13T00:46:35.665Z,74.90
2022-10-13T00:49:12.504Z,74.90
2022-10-13T00:51:49.006Z,75.00
2022-10-13T00:54:19.336Z,75.00
2022-10-13T00:56:47.560Z,75.00
2022-10-13T00:59:28.880Z,75.10
2022-10-13T01:01:59.378Z,75.20
2022-10-13T01:04:31.697Z,75.00
2022-10-13T01:07:00.100Z,74.90
2022-10-13T01:09:34.752Z,74.80
2022-10-13T01:12:26.884Z,74.80
2022-10-13T01:15:23.028Z,75.10
2022-10-13T01:18:19.112Z,74.70
2022-10-13T01:21:05.999Z,74.80
2022-10-13T01:23:49.270Z,74.90
2022-10-13T01:26:42.571Z,74.80
2022-10-13T01:29:12.923Z,74.90
2022-10-13T01:32:04.325Z,74.80
2022-10-13T01:35:00.300Z,75.10
2022-10-13T01:37:39.537Z,75.50
2022-10-13T01:40:15.427Z,75.70
2022-10-13T01:42:53.736Z,76.10
2022-10-13T01:45:28.668Z,76.60
2022-10-13T01:47:57.893Z,76.70
2022-10-13T01:50:26.310Z,76.80
2022-10-13T01:52:54.475Z,76.90
2022-10-13T01:55:21.915Z,76.90
2022-10-13T01:57:49.339Z,76.90
2022-10-13T02:00:19.601Z,76.90
2022-10-13T02:03:13.099Z,76.80
2022-10-13T02:06:05.522Z,77.00
2022-10-13T02:09:09.615Z,77.10
2022-10-13T02:11:43.256Z,77.20
2022-10-13T02:14:20.095Z,77.20
2022-10-13T02:16:49.320Z,77.50
2022-10-13T02:19:18.663Z,77.50
2022-10-13T02:21:47.362Z,77.40
2022-10-13T02:24:14.756Z,77.50
2022-10-13T02:26:42.238Z,77.40
2022-10-13T02:29:14.012Z,77.50
2022-10-13T02:31:43.145Z,77.60
2022-10-13T02:34:11.475Z,77.60
2022-10-13T02:36:39.604Z,77.60
2022-10-13T02:39:10.862Z,77.50
2022-10-13T02:41:38.150Z,77.40
2022-10-13T02:44:06.331Z,77.40
2022-10-13T02:46:41.848Z,77.40
2022-10-13T02:49:09.866Z,77.30
2022-10-13T02:51:40.179Z,77.40
2022-10-13T02:54:08.161Z,77.40
2022-10-13T02:56:35.441Z,77.30
2022-10-13T02:59:03.051Z,77.60
2022-10-13T03:01:30.379Z,77.80
2022-10-13T03:03:57.691Z,77.90
2022-10-13T03:06:25.144Z,77.60
2022-10-13T03:08:52.352Z,77.40
2022-10-13T03:11:19.534Z,77.30
2022-10-13T03:13:47.113Z,77.10
2022-10-13T03:16:14.859Z,77.00
2022-10-13T03:18:42.109Z,76.90
2022-10-13T03:21:10.498Z,77.10
2022-10-13T03:23:40.764Z,77.40
2022-10-13T03:26:08.228Z,77.60
2022-10-13T03:28:35.625Z,77.80
2022-10-13T03:31:06.523Z,78.00
2022-10-13T03:33:34.204Z,78.30
2022-10-13T03:36:03.448Z,78.20
2022-10-13T03:38:33.696Z,78.10
2022-10-13T03:41:09.489Z,78.10
2022-10-13T03:43:37.630Z,78.00
2022-10-13T03:46:06.979Z,77.70
2022-10-13T03:48:36.008Z,77.70
2022-10-13T03:51:08.079Z,77.80
2022-10-13T03:53:36.309Z,77.80
2022-10-13T03:56:05.591Z,77.70
2022-10-13T03:58:36.044Z,77.70
2022-10-13T04:01:06.737Z,77.60
2022-10-13T04:03:34.923Z,77.50
2022-10-13T04:06:04.091Z,77.50
2022-10-13T04:08:33.654Z,77.50
2022-10-13T04:11:03.307Z,77.50
2022-10-13T04:13:31.817Z,77.60
2022-10-13T04:16:06.420Z,77.70
2022-10-13T04:18:33.879Z,78.00
2022-10-13T04:21:01.584Z,78.20
2022-10-13T04:23:29.008Z,78.20
2022-10-13T04:25:57.316Z,78.30
2022-10-13T04:28:24.802Z,78.20
2022-10-13T04:30:52.308Z,78.10
2022-10-13T04:33:19.688Z,78.00
2022-10-13T04:35:47.204Z,77.90
2022-10-13T04:38:14.659Z,77.80
2022-10-13T04:40:42.216Z,77.80
2022-10-13T04:43:09.707Z,78.60
2022-10-13T04:45:37.342Z,78.00
2022-10-13T04:48:05.515Z,78.50
2022-10-13T04:50:33.111Z,78.70
2022-10-13T04:53:01.194Z,79.10
2022-10-13T04:55:28.582Z,79.10
2022-10-13T04:57:56.020Z,79.10
2022-10-13T05:00:23.775Z,79.00
2022-10-13T05:02:51.607Z,79.00
2022-10-13T05:05:19.016Z,79.10
2022-10-13T05:07:46.343Z,79.20
2022-10-13T05:10:14.591Z,79.10
2022-10-13T05:12:42.848Z,79.20
2022-10-13T05:15:11.756Z,79.30
2022-10-13T05:17:39.284Z,79.30
2022-10-13T05:20:10.108Z,79.30
2022-10-13T05:22:37.771Z,80.00
2022-10-13T05:25:05.519Z,79.30
2022-10-13T05:27:32.987Z,79.30
2022-10-13T05:30:04.440Z,79.30
2022-10-13T05:32:31.665Z,79.30
2022-10-13T05:34:59.376Z,79.30
2022-10-13T05:37:27.099Z,79.30
2022-10-13T05:39:54.448Z,79.20
2022-10-13T05:42:21.979Z,79.00
2022-10-13T05:44:49.497Z,79.00
2022-10-13T05:47:17.041Z,79.00
2022-10-13T05:49:45.827Z,78.90
2022-10-13T05:52:13.506Z,79.00
2022-10-13T05:54:46.766Z,79.00
2022-10-13T05:57:33.495Z,79.10
2022-10-13T06:00:13.126Z,79.30
2022-10-13T06:02:44.062Z,79.60
2022-10-13T06:05:18.289Z,79.70
2022-10-13T06:07:47.000Z,79.70
2022-10-13T06:10:16.223Z,79.80
2022-10-13T06:12:43.566Z,79.70
2022-10-13T06:15:11.337Z,79.60
2022-10-13T06:17:39.305Z,79.50
2022-10-13T06:20:07.826Z,79.50
2022-10-13T06:22:35.793Z,79.50
2022-10-13T06:25:05.162Z,79.50
2022-10-13T06:27:32.910Z,79.50
2022-10-13T06:30:00.252Z,79.50
2022-10-13T06:32:27.876Z,79.50
2022-10-13T06:34:55.071Z,79.30
2022-10-13T06:37:27.185Z,79.30
2022-10-13T06:39:55.243Z,79.30
2022-10-13T06:42:23.147Z,79.20
2022-10-13T06:45:09.002Z,79.10
2022-10-13T06:47:36.448Z,79.10
2022-10-13T06:50:04.123Z,79.00
2022-10-13T06:52:31.787Z,78.90
2022-10-13T06:55:00.147Z,79.00
2022-10-13T06:57:29.835Z,78.90
2022-10-13T06:59:58.088Z,78.90
2022-10-13T07:02:25.632Z,78.90
2022-10-13T07:04:53.011Z,78.80
2022-10-13T07:07:20.352Z,79.40
2022-10-13T07:09:49.506Z,78.50
2022-10-13T07:12:17.234Z,78.40
2022-10-13T07:14:44.927Z,78.40
2022-10-13T07:17:12.453Z,78.40
2022-10-13T07:19:39.954Z,78.30
2022-10-13T07:22:07.348Z,78.10
2022-10-13T07:24:34.732Z,77.90
2022-10-13T07:27:07.462Z,77.80
2022-10-13T07:29:35.662Z,77.80
2022-10-13T07:32:03.308Z,77.90
2022-10-13T07:34:30.743Z,77.90
2022-10-13T07:36:58.160Z,77.80
2022-10-13T07:39:26.005Z,77.80
2022-10-13T07:41:53.663Z,77.80
2022-10-13T07:44:21.472Z,77.90
2022-10-13T07:46:48.934Z,77.90
2022-10-13T07:49:16.608Z,78.00
2022-10-13T07:51:44.601Z,77.90
2022-10-13T07:54:12.292Z,77.70
2022-10-13T07:56:40.095Z,77.80
2022-10-13T07:59:08.211Z,77.80
2022-10-13T08:01:35.643Z,77.50
2022-10-13T08:04:03.683Z,77.30
2022-10-13T08:06:31.207Z,77.10
2022-10-13T08:09:00.578Z,77.10
2022-10-13T08:11:28.637Z,77.10
2022-10-13T08:14:00.658Z,76.90
2022-10-13T08:16:29.251Z,77.00
2022-10-13T08:18:58.552Z,76.90
2022-10-13T08:24:16.955Z,76.80
2022-10-13T08:26:46.300Z,76.60
2022-10-13T08:29:21.869Z,76.60
2022-10-13T08:31:51.727Z,76.50
2022-10-13T08:34:19.983Z,76.50
2022-10-13T08:36:47.500Z,76.40
2022-10-13T08:39:15.022Z,76.30
2022-10-13T08:41:43.988Z,76.40
2022-10-13T08:47:32.356Z,76.40
2022-10-13T08:50:03.918Z,76.20
2022-10-13T08:52:46.937Z,76.20
2022-10-13T08:55:45.726Z,76.30
2022-10-13T08:58:25.681Z,76.30
2022-10-13T09:01:18.110Z,76.50
2022-10-13T09:04:17.603Z,76.70
2022-10-13T09:07:03.030Z,76.80
2022-10-13T09:09:30.702Z,76.50
2022-10-13T09:11:58.671Z,76.60
2022-10-13T09:14:30.074Z,76.60
2022-10-13T09:17:20.284Z,76.20
2022-10-13T09:19:57.908Z,75.90
2022-10-13T09:22:37.137Z,75.90
2022-10-13T09:25:21.079Z,75.90
2022-10-13T09:28:00.562Z,75.80
2022-10-13T09:30:36.644Z,75.90
2022-10-13T09:33:14.211Z,75.70
2022-10-13T09:36:06.503Z,74.90
2022-10-13T09:38:34.944Z,74.30
2022-10-13T09:41:10.151Z,73.90
2022-10-13T09:43:44.040Z,73.40
2022-10-13T09:46:23.846Z,73.20
2022-10-13T09:48:55.555Z,73.10
2022-10-13T09:51:39.935Z,73.20
2022-10-13T09:54:39.024Z,73.30
2022-10-13T09:57:18.454Z,72.90
2022-10-13T10:00:11.073Z,72.90
2022-10-13T10:03:08.804Z,73.40
2022-10-13T10:05:51.749Z,73.50
2022-10-13T10:09:03.801Z,73.30
2022-10-13T10:11:42.281Z,73.20
2022-10-13T10:14:27.444Z,73.50
2022-10-13T10:17:25.922Z,73.40
2022-10-13T10:20:30.926Z,74.20
2022-10-13T10:23:17.197Z,73.50
2022-10-13T10:25:46.788Z,73.60
2022-10-13T10:28:37.617Z,73.70
2022-10-13T10:31:17.455Z,73.40
2022-10-13T10:34:15.487Z,73.50
2022-10-13T10:37:14.132Z,73.50
2022-10-13T10:40:03.600Z,73.20
2022-10-13T10:43:06.409Z,73.20
2022-10-13T10:45:38.817Z,73.10
2022-10-13T10:48:23.720Z,72.80
2022-10-13T10:50:53.149Z,72.80
2022-10-13T10:53:58.640Z,72.80
2022-10-13T10:56:39.178Z,72.80
2022-10-13T10:59:16.544Z,72.60
2022-10-13T11:02:00.996Z,72.50
2022-10-13T11:04:35.875Z,72.70
2022-10-13T11:07:04.454Z,72.70
2022-10-13T11:09:43.891Z,73.00
2022-10-13T11:12:20.700Z,72.80
2022-10-13T11:15:02.448Z,72.20
2022-10-13T11:17:34.267Z,72.10
2022-10-13T11:20:24.943Z,71.50
2022-10-13T11:22:58.485Z,71.10
2022-10-13T11:25:48.796Z,70.90
2022-10-13T11:28:23.018Z,70.80
2022-10-13T11:30:56.195Z,70.80
2022-10-13T11:33:39.503Z,70.40
2022-10-13T11:36:32.175Z,70.40
2022-10-13T11:39:28.097Z,70.50
2022-10-13T11:42:12.164Z,70.40
2022-10-13T11:44:59.184Z,69.80
2022-10-13T11:47:40.054Z,69.70
2022-10-13T11:50:07.734Z,69.70
2022-10-13T11:52:47.190Z,69.60
2022-10-13T11:55:19.968Z,68.50
2022-10-13T11:57:48.594Z,68.50
2022-10-13T12:00:19.180Z,68.40
2022-10-13T12:02:49.592Z,67.80
2022-10-13T12:05:25.918Z,67.70
2022-10-13T12:07:56.704Z,67.50
2022-10-13T12:10:36.430Z,67.10
2022-10-13T12:13:08.486Z,66.80
2022-10-13T12:15:43.358Z,67.10
2022-10-13T12:18:22.993Z,66.40
2022-10-13T12:20:53.713Z,66.00
2022-10-13T12:23:21.331Z,66.30
2022-10-13T12:25:56.565Z,66.20
2022-10-13T12:28:27.352Z,65.90
2022-10-13T12:30:58.484Z,66.10
2022-10-13T12:33:33.042Z,66.10
2022-10-13T12:36:16.949Z,65.80
2022-10-13T12:38:49.791Z,65.60
2022-10-13T12:41:27.387Z,65.80
2022-10-13T12:43:55.529Z,65.70
2022-10-13T12:46:39.739Z,65.80
2022-10-13T12:49:23.892Z,65.50
2022-10-13T12:51:56.100Z,65.50
2022-10-13T12:54:32.303Z,65.50
2022-10-13T12:57:03.962Z,65.50
2022-10-13T12:59:32.280Z,65.50
2022-10-13T13:02:02.460Z,65.70
2022-10-13T13:04:38.329Z,65.40
2022-10-13T13:07:21.760Z,64.80
2022-10-13T13:10:09.347Z,64.60
2022-10-13T13:12:37.895Z,64.70
2022-10-13T13:15:25.733Z,65.00
2022-10-13T13:17:58.934Z,64.20
2022-10-13T13:20:34.708Z,64.50
2022-10-13T13:23:02.342Z,64.80
2022-10-13T13:25:29.858Z,64.50
2022-10-13T13:27:57.308Z,64.70
2022-10-13T13:30:26.325Z,64.50
2022-10-13T13:32:53.796Z,64.70
2022-10-13T13:35:21.299Z,64.40
2022-10-13T13:37:53.175Z,64.30
2022-10-13T13:40:26.227Z,64.50
2022-10-13T13:42:54.310Z,64.60
2022-10-13T13:45:24.855Z,63.60
2022-10-13T13:47:59.544Z,63.30
2022-10-13T13:50:33.270Z,63.50
2022-10-13T13:53:01.306Z,63.70
2022-10-13T13:55:30.689Z,63.50
2022-10-13T13:57:58.349Z,63.90
2022-10-13T14:00:25.896Z,64.10
2022-10-13T14:02:57.694Z,64.80
2022-10-13T14:05:25.879Z,63.80
2022-10-13T14:07:55.047Z,64.20
2022-10-13T14:10:22.760Z,64.10
2022-10-13T14:12:52.574Z,64.00
2022-10-13T14:15:20.056Z,64.20
2022-10-13T14:17:47.792Z,64.20
2022-10-13T14:20:15.532Z,64.30
2022-10-13T14:22:45.207Z,64.40
2022-10-13T14:25:14.332Z,64.40
2022-10-13T14:27:45.635Z,64.40
2022-10-13T14:30:13.627Z,63.90
2022-10-13T14:32:41.092Z,64.00
2022-10-13T14:35:08.819Z,63.70
2022-10-13T14:37:36.662Z,64.00
2022-10-13T14:40:04.545Z,64.10
2022-10-13T14:42:33.016Z,64.10
2022-10-13T14:45:00.724Z,64.40
2022-10-13T14:47:28.265Z,64.30
2022-10-13T14:49:55.751Z,64.30
2022-10-13T14:52:23.443Z,64.50
2022-10-13T14:54:51.040Z,64.70
2022-10-13T14:57:21.904Z,64.90
2022-10-13T14:59:49.704Z,64.90
2022-10-13T15:02:17.419Z,64.50
2022-10-13T15:04:53.987Z,64.80
2022-10-13T15:07:21.799Z,65.00
2022-10-13T15:10:04.355Z,64.70
2022-10-13T15:12:33.421Z,64.40
2022-10-13T15:15:01.008Z,64.30
2022-10-13T15:17:30.775Z,64.60
2022-10-13T15:19:58.159Z,64.70
2022-10-13T15:22:25.740Z,65.00
2022-10-13T15:24:53.220Z,65.00
2022-10-13T15:27:20.779Z,64.80
2022-10-13T15:29:48.076Z,64.70
2022-10-13T15:32:18.480Z,64.70
2022-10-13T15:34:51.042Z,64.80
2022-10-13T15:37:18.652Z,64.90
2022-10-13T15:39:46.290Z,65.00
2022-10-13T15:42:13.804Z,65.00
2022-10-13T15:45:08.231Z,65.00
2022-10-13T15:47:29.287Z,64.90
2022-10-13T15:49:56.849Z,64.80
2022-10-13T15:52:24.541Z,64.90
2022-10-13T15:54:52.192Z,65.00
2022-10-13T15:57:19.391Z,65.10
2022-10-13T15:59:47.036Z,65.30
2022-10-13T16:02:14.504Z,65.40
2022-10-13T16:04:41.872Z,65.70
2022-10-13T16:07:09.571Z,65.90
2022-10-13T16:09:36.809Z,65.90
2022-10-13T16:12:05.436Z,66.10
2022-10-13T16:14:32.674Z,66.20
2022-10-13T16:17:00.062Z,66.30
2022-10-13T16:19:27.427Z,66.50
2022-10-13T16:21:54.819Z,66.70
2022-10-13T16:24:22.448Z,66.80
2022-10-13T16:26:49.967Z,66.80
2022-10-13T16:29:17.777Z,67.10
2022-10-13T16:31:45.336Z,67.10
2022-10-13T16:34:12.711Z,67.20
2022-10-13T16:36:40.262Z,67.40
2022-10-13T16:39:07.503Z,67.50
2022-10-13T16:41:36.029Z,67.50
2022-10-13T16:44:03.289Z,67.70
2022-10-13T16:46:30.656Z,67.60
2022-10-13T16:48:57.863Z,67.50
2022-10-13T16:51:26.705Z,67.50
2022-10-13T16:54:03.593Z,67.70
2022-10-13T16:56:32.487Z,67.80
2022-10-13T16:59:05.860Z,67.90
2022-10-13T17:01:35.107Z,68.10
2022-10-13T17:04:04.554Z,68.30
2022-10-13T17:06:32.924Z,69.10
2022-10-13T17:09:02.793Z,68.30
2022-10-13T17:11:33.287Z,68.20
2022-10-13T17:14:01.208Z,68.30
2022-10-13T17:16:31.485Z,68.40
2022-10-13T17:18:58.840Z,68.70
2022-10-13T17:21:33.973Z,68.70
2022-10-13T17:24:01.319Z,68.70
2022-10-13T17:26:28.776Z,68.70
2022-10-13T17:28:56.429Z,68.90
2022-10-13T17:31:24.743Z,68.70
2022-10-13T17:33:52.500Z,68.70
2022-10-13T17:36:26.247Z,68.90
2022-10-13T17:38:56.182Z,69.20
2022-10-13T17:41:24.290Z,69.00
2022-10-13T17:43:52.390Z,68.90
2022-10-13T17:46:39.215Z,68.90
2022-10-13T17:49:11.037Z,68.90
2022-10-13T17:51:42.662Z,69.10
2022-10-13T17:54:15.662Z,69.20
2022-10-13T17:56:45.095Z,69.30
2022-10-13T17:59:14.515Z,69.60
2022-10-13T18:01:42.988Z,69.70
2022-10-13T18:04:13.299Z,69.80
2022-10-13T18:06:43.693Z,70.10
2022-10-13T18:09:12.623Z,70.20
2022-10-13T18:11:49.780Z,70.20
2022-10-13T18:14:22.263Z,70.20
2022-10-13T18:16:53.960Z,70.30
2022-10-13T18:19:21.695Z,70.40
2022-10-13T18:21:49.700Z,70.40
2022-10-13T18:24:17.219Z,70.50
2022-10-13T18:26:44.963Z,70.50
2022-10-13T18:29:13.074Z,70.50
2022-10-13T18:31:42.220Z,70.50
2022-10-13T18:34:15.453Z,70.60
2022-10-13T18:36:47.221Z,70.70
2022-10-13T18:39:20.395Z,70.70
2022-10-13T18:41:49.976Z,70.70
2022-10-13T18:44:17.972Z,70.80
2022-10-13T18:46:48.401Z,70.80
2022-10-13T18:49:23.113Z,70.80
2022-10-13T18:51:51.879Z,70.90
2022-10-13T18:54:19.492Z,70.90
2022-10-13T18:56:46.865Z,70.90
2022-10-13T18:59:14.312Z,71.00
2022-10-13T19:01:42.769Z,71.10
2022-10-13T19:04:12.697Z,71.20
2022-10-13T19:06:40.741Z,71.20
2022-10-13T19:09:11.108Z,71.10
2022-10-13T19:11:39.134Z,71.20
2022-10-13T19:14:08.846Z,71.10
2022-10-13T19:16:38.223Z,71.10
2022-10-13T19:19:06.718Z,71.10
2022-10-13T19:21:34.185Z,71.10
2022-10-13T19:24:01.896Z,71.20
2022-10-13T19:26:33.116Z,71.20
2022-10-13T19:29:03.678Z,71.10
2022-10-13T19:31:33.015Z,71.00
2022-10-13T19:34:03.465Z,71.00
2022-10-13T19:36:37.586Z,71.00
2022-10-13T19:39:17.843Z,71.00
2022-10-13T19:41:46.772Z,71.30
2022-10-13T19:44:16.223Z,71.30
2022-10-13T19:46:45.422Z,71.40
2022-10-13T19:49:15.529Z,71.50
2022-10-13T19:51:46.436Z,71.60
2022-10-13T19:54:14.163Z,71.60
2022-10-13T19:56:46.436Z,72.40
2022-10-13T19:59:14.461Z,71.60
2022-10-13T20:01:42.148Z,71.70
2022-10-13T20:04:18.512Z,72.00
2022-10-13T20:06:47.732Z,72.10
2022-10-13T20:09:15.430Z,72.30
2022-10-13T20:11:48.008Z,72.20
2022-10-13T20:14:16.511Z,72.30
2022-10-13T20:16:44.856Z,72.30
2022-10-13T20:19:16.006Z,72.40
2022-10-13T20:21:47.862Z,72.40
2022-10-13T20:24:15.893Z,72.30
2022-10-13T20:26:43.555Z,72.30
2022-10-13T20:29:11.367Z,72.40
2022-10-13T20:31:38.883Z,72.40
2022-10-13T20:34:06.363Z,72.30
2022-10-13T20:36:38.564Z,72.50
2022-10-13T20:39:07.543Z,72.30
2022-10-13T20:41:35.214Z,72.40
2022-10-13T20:44:02.883Z,72.70
2022-10-13T20:46:33.094Z,72.80
2022-10-13T20:49:15.809Z,72.70
2022-10-13T20:51:43.865Z,72.80
2022-10-13T20:54:13.477Z,72.60
2022-10-13T20:56:41.502Z,72.80
2022-10-13T20:59:12.179Z,72.90
2022-10-13T21:01:40.386Z,73.00
2022-10-13T21:04:08.118Z,73.00
2022-10-13T21:06:35.895Z,73.30
2022-10-13T21:09:05.520Z,73.20
2022-10-13T21:11:33.587Z,73.30
2022-10-13T21:14:06.118Z,73.30
2022-10-13T21:16:34.568Z,73.30
2022-10-13T21:19:03.456Z,73.40
2022-10-13T21:21:33.029Z,73.50
2022-10-13T21:24:03.319Z,73.60
2022-10-13T21:26:32.405Z,73.70
2022-10-13T21:29:01.164Z,73.70
2022-10-13T21:31:29.911Z,73.70
2022-10-13T21:33:58.056Z,73.70
2022-10-13T21:36:31.536Z,73.80
2022-10-13T21:39:01.712Z,73.90
2022-10-13T21:41:29.681Z,73.80
2022-10-13T21:43:57.762Z,73.70
2022-10-13T21:46:30.965Z,73.80
2022-10-13T21:49:00.875Z,73.80
2022-10-13T21:51:32.250Z,73.90
2022-10-13T21:54:02.314Z,73.80
2022-10-13T21:56:32.419Z,73.70
2022-10-13T21:59:00.229Z,73.90
2022-10-13T22:01:28.327Z,73.90
2022-10-13T22:04:01.287Z,73.90
2022-10-13T22:06:30.744Z,74.10
2022-10-13T22:08:59.956Z,74.00
2022-10-13T22:11:31.240Z,74.10
2022-10-13T22:13:59.449Z,74.10
2022-10-13T22:16:40.616Z,74.00
2022-10-13T22:19:08.532Z,74.00
2022-10-13T22:21:42.819Z,73.90
2022-10-13T22:24:14.595Z,74.40
2022-10-13T22:26:43.296Z,75.10
2022-10-13T22:29:12.982Z,75.20
2022-10-13T22:31:41.287Z,75.30
2022-10-13T22:34:13.812Z,75.50
2022-10-13T22:36:44.731Z,75.90
2022-10-13T22:39:13.561Z,75.90
2022-10-13T22:41:41.572Z,75.80
2022-10-13T22:44:09.316Z,75.80
2022-10-13T22:46:38.067Z,75.90
2022-10-13T22:49:06.671Z,76.10
2022-10-13T22:51:36.002Z,76.10
2022-10-13T22:54:04.812Z,76.10
2022-10-13T22:56:34.072Z,76.20
2022-10-13T22:59:04.884Z,76.40
2022-10-13T23:01:32.341Z,76.50
2022-10-13T23:04:00.153Z,76.60
2022-10-13T23:06:30.186Z,76.80
2022-10-13T23:09:00.948Z,76.90
2022-10-13T23:11:28.901Z,77.00
2022-10-13T23:13:57.698Z,76.80
2022-10-13T23:16:26.095Z,76.80
2022-10-13T23:18:53.961Z,77.00
2022-10-13T23:21:27.365Z,77.20
2022-10-13T23:24:03.936Z,77.40
2022-10-13T23:26:32.404Z,77.40
2022-10-13T23:29:00.450Z,77.20
2022-10-13T23:31:28.851Z,77.10
2022-10-13T23:33:56.896Z,77.10
2022-10-13T23:36:27.225Z,77.10
2022-10-13T23:38:59.094Z,77.30
2022-10-13T23:41:27.191Z,77.40
2022-10-13T23:43:54.917Z,77.30
2022-10-13T23:46:22.704Z,77.50
2022-10-13T23:48:50.176Z,77.50
2022-10-13T23:51:19.462Z,77.70
2022-10-13T23:53:47.771Z,78.00
2022-10-13T23:56:15.806Z,77.70
2022-10-13T23:58:44.588Z,77.60
